createdAt,value
2022-09-27T00:00:07.819Z,13.98
2022-09-27T00:02:39.672Z,12.90
2022-09-27T00:05:07.688Z,12.23
2022-09-27T00:07:35.073Z,14.30
2022-09-27T00:10:02.655Z,12.63
2022-09-27T00:12:30.266Z,14.45
2022-09-27T00:14:57.598Z,12.27
2022-09-27T00:17:24.946Z,11.63
2022-09-27T00:19:52.606Z,16.20
2022-09-27T00:22:19.946Z,12.93
2022-09-27T00:24:47.468Z,13.70
2022-09-27T00:27:15.182Z,12.80
2022-09-27T00:29:42.632Z,13.93
2022-09-27T00:32:09.973Z,14.82
2022-09-27T00:34:37.598Z,13.32
2022-09-27T00:37:05.181Z,11.45
2022-09-27T00:39:32.525Z,12.07
2022-09-27T00:42:00.176Z,12.85
2022-09-27T00:44:27.405Z,13.23
2022-09-27T00:47:00.323Z,11.95
2022-09-27T00:49:31.203Z,10.52
2022-09-27T00:52:01.351Z,10.88
2022-09-27T00:54:29.142Z,15.30
2022-09-27T00:56:56.597Z,15.73
2022-09-27T00:59:38.763Z,11.10
2022-09-27T01:02:06.493Z,11.00
2022-09-27T01:04:34.250Z,12.35
2022-09-27T01:07:01.609Z,17.17
2022-09-27T01:09:29.293Z,12.13
2022-09-27T01:12:11.528Z,17.30
2022-09-27T01:14:42.131Z,11.98
2022-09-27T01:17:43.465Z,12.37
2022-09-27T01:20:32.243Z,13.40
2022-09-27T01:23:02.656Z,13.82
2022-09-27T01:25:45.765Z,12.48
2022-09-27T01:28:50.815Z,13.85
2022-09-27T01:31:41.571Z,11.70
2022-09-27T01:34:42.597Z,14.73
2022-09-27T01:37:19.371Z,10.57
2022-09-27T01:40:00.084Z,14.38
2022-09-27T01:42:40.301Z,15.50
2022-09-27T01:45:19.014Z,14.45
2022-09-27T01:47:56.582Z,12.40
2022-09-27T01:50:44.653Z,10.07
2022-09-27T01:53:13.773Z,12.43
2022-09-27T01:55:42.633Z,12.37
2022-09-27T01:58:33.617Z,11.82
2022-09-27T02:01:02.021Z,11.50
2022-09-27T02:03:33.689Z,14.75
2022-09-27T02:06:12.806Z,13.35
2022-09-27T02:08:48.926Z,13.82
2022-09-27T02:11:17.560Z,14.65
2022-09-27T02:13:55.705Z,12.05
2022-09-27T02:17:15.792Z,16.30
2022-09-27T02:19:56.992Z,16.60
2022-09-27T02:22:33.893Z,15.10
2022-09-27T02:25:23.804Z,15.57
2022-09-27T02:28:00.781Z,16.50
2022-09-27T02:30:29.021Z,17.42
2022-09-27T02:32:57.126Z,17.35
2022-09-27T02:35:29.824Z,19.60
2022-09-27T02:37:57.471Z,21.95
2022-09-27T02:40:26.303Z,30.35
2022-09-27T02:42:53.763Z,23.12
2022-09-27T02:45:21.787Z,22.52
2022-09-27T02:48:05.520Z,28.08
2022-09-27T02:50:52.822Z,33.35
2022-09-27T02:53:53.468Z,44.05
2022-09-27T02:56:39.981Z,39.80
2022-09-27T02:59:11.462Z,53.67
2022-09-27T03:01:56.374Z,67.78
2022-09-27T03:04:30.377Z,59.63
2022-09-27T03:06:58.009Z,66.65
2022-09-27T03:09:29.236Z,73.30
2022-09-27T03:11:56.741Z,78.85
2022-09-27T03:14:26.216Z,64.12
2022-09-27T03:16:53.925Z,55.45
2022-09-27T03:19:22.860Z,57.42
2022-09-27T03:21:51.955Z,54.00
2022-09-27T03:24:19.368Z,50.33
2022-09-27T03:26:47.016Z,48.15
2022-09-27T03:29:15.615Z,42.70
2022-09-27T03:31:44.531Z,38.83
2022-09-27T03:34:14.835Z,43.08
2022-09-27T03:36:43.230Z,38.05
2022-09-27T03:39:10.641Z,32.90
2022-09-27T03:41:38.235Z,32.03
2022-09-27T03:44:05.898Z,29.75
2022-09-27T03:46:33.892Z,31.25
2022-09-27T03:49:01.354Z,28.08
2022-09-27T03:51:28.706Z,29.60
2022-09-27T03:53:56.927Z,35.60
2022-09-27T03:56:24.336Z,33.10
2022-09-27T03:58:51.786Z,35.15
2022-09-27T04:01:19.926Z,34.25
2022-09-27T04:03:47.876Z,33.33
2022-09-27T04:06:19.075Z,31.55
2022-09-27T04:08:47.416Z,31.42
2022-09-27T04:11:15.303Z,45.50
2022-09-27T04:13:44.532Z,40.95
2022-09-27T04:16:12.595Z,54.08
2022-09-27T04:18:43.615Z,55.35
2022-09-27T04:21:12.387Z,48.63
2022-09-27T04:23:40.675Z,46.90
2022-09-27T04:26:09.468Z,38.35
2022-09-27T04:28:38.656Z,43.13
2022-09-27T04:31:06.131Z,46.28
2022-09-27T04:33:34.240Z,95.22
2022-09-27T04:36:20.998Z,51.80
2022-09-27T04:38:49.503Z,79.70
2022-09-27T04:41:21.638Z,75.45
2022-09-27T04:43:56.798Z,75.82
2022-09-27T04:46:31.581Z,209.87
2022-09-27T04:49:00.232Z,146.85
2022-09-27T04:51:28.010Z,69.18
2022-09-27T04:53:58.329Z,145.23
2022-09-27T04:56:26.447Z,97.53
2022-09-27T04:58:54.047Z,186.88
2022-09-27T05:01:22.840Z,88.25
2022-09-27T05:03:51.898Z,46.22
2022-09-27T05:06:19.805Z,29.33
2022-09-27T05:08:47.138Z,59.10
2022-09-27T05:11:14.946Z,122.53
2022-09-27T05:13:43.845Z,108.60
2022-09-27T05:16:11.300Z,177.93
2022-09-27T05:18:39.559Z,40.83
2022-09-27T05:21:08.644Z,63.03
2022-09-27T05:23:36.625Z,68.12
2022-09-27T05:26:05.781Z,83.35
2022-09-27T05:28:37.376Z,79.68
2022-09-27T05:31:05.836Z,64.75
2022-09-27T05:33:34.537Z,63.58
2022-09-27T05:36:04.529Z,41.65
2022-09-27T05:38:32.827Z,126.03
2022-09-27T05:41:00.525Z,59.17
2022-09-27T05:43:28.864Z,66.43
2022-09-27T05:45:56.866Z,42.47
2022-09-27T05:48:24.430Z,36.92
2022-09-27T05:50:52.846Z,44.05
2022-09-27T05:53:21.158Z,53.90
2022-09-27T05:55:49.669Z,44.17
2022-09-27T05:58:17.666Z,31.17
2022-09-27T06:00:45.607Z,31.95
2022-09-27T06:03:16.215Z,25.30
2022-09-27T06:05:51.478Z,40.33
2022-09-27T06:08:20.458Z,42.10
2022-09-27T06:10:48.128Z,27.05
2022-09-27T06:13:16.149Z,30.27
2022-09-27T06:15:44.796Z,35.40
2022-09-27T06:18:16.165Z,46.53
2022-09-27T06:20:44.349Z,46.00
2022-09-27T06:23:16.649Z,35.33
2022-09-27T06:25:44.323Z,34.25
2022-09-27T06:28:12.138Z,39.05
2022-09-27T06:30:41.159Z,31.23
2022-09-27T06:33:09.878Z,27.52
2022-09-27T06:35:37.552Z,32.00
2022-09-27T06:38:07.041Z,23.50
2022-09-27T06:40:35.674Z,35.45
2022-09-27T06:43:09.405Z,34.20
2022-09-27T06:45:37.798Z,29.42
2022-09-27T06:48:19.950Z,25.10
2022-09-27T06:50:49.259Z,30.25
2022-09-27T06:53:24.659Z,28.73
2022-09-27T06:56:05.667Z,24.95
2022-09-27T06:59:01.893Z,28.92
2022-09-27T07:01:36.400Z,23.12
2022-09-27T07:04:04.359Z,26.48
2022-09-27T07:06:36.624Z,27.70
2022-09-27T07:09:06.676Z,30.62
2022-09-27T07:11:37.131Z,25.77
2022-09-27T07:14:04.791Z,24.98
2022-09-27T07:16:34.812Z,23.52
2022-09-27T07:19:02.716Z,19.75
2022-09-27T07:21:31.309Z,25.58
2022-09-27T07:23:58.777Z,19.12
2022-09-27T07:26:26.299Z,19.20
2022-09-27T07:28:54.188Z,19.33
2022-09-27T07:31:21.762Z,20.20
2022-09-27T07:33:49.307Z,18.42
2022-09-27T07:36:18.364Z,21.12
2022-09-27T07:38:46.478Z,18.85
2022-09-27T07:41:14.788Z,18.90
2022-09-27T07:43:47.125Z,17.08
2022-09-27T07:46:18.805Z,20.27
2022-09-27T07:48:46.997Z,20.05
2022-09-27T07:51:14.446Z,21.10
2022-09-27T07:53:42.548Z,19.77
2022-09-27T07:56:10.642Z,24.48
2022-09-27T07:58:38.259Z,17.75
2022-09-27T08:01:06.288Z,22.17
2022-09-27T08:03:34.998Z,20.23
2022-09-27T08:06:03.293Z,22.95
2022-09-27T08:08:30.935Z,19.90
2022-09-27T08:10:59.542Z,20.62
2022-09-27T08:13:26.904Z,20.77
2022-09-27T08:15:54.371Z,20.10
2022-09-27T08:18:24.250Z,28.12
2022-09-27T08:20:52.153Z,22.58
2022-09-27T08:23:19.578Z,21.40
2022-09-27T08:25:53.537Z,20.30
2022-09-27T08:28:22.743Z,23.38
2022-09-27T08:30:52.950Z,29.33
2022-09-27T08:33:20.696Z,20.98
2022-09-27T08:35:48.246Z,35.95
2022-09-27T08:38:16.220Z,20.90
2022-09-27T08:40:44.189Z,25.37
2022-09-27T08:43:26.753Z,20.67
2022-09-27T08:46:24.991Z,21.42
2022-09-27T08:48:56.688Z,22.08
2022-09-27T08:51:28.997Z,24.20
2022-09-27T08:54:00.095Z,27.40
2022-09-27T08:56:28.229Z,25.65
2022-09-27T08:58:58.962Z,24.98
2022-09-27T09:01:28.935Z,21.75
2022-09-27T09:03:59.868Z,19.00
2022-09-27T09:06:36.441Z,24.55
2022-09-27T09:09:27.549Z,23.05
2022-09-27T09:12:44.483Z,23.35
2022-09-27T09:16:05.240Z,22.00
2022-09-27T09:18:55.214Z,23.55
2022-09-27T09:21:30.144Z,22.95
2022-09-27T09:24:26.258Z,26.60
2022-09-27T09:27:02.726Z,23.67
2022-09-27T09:29:54.662Z,23.10
2022-09-27T09:32:39.397Z,20.75
2022-09-27T09:35:07.542Z,19.27
2022-09-27T09:37:35.109Z,18.17
2022-09-27T09:40:09.319Z,20.45
2022-09-27T09:43:01.952Z,25.17
2022-09-27T09:45:44.462Z,18.80
2022-09-27T09:48:28.401Z,20.73
2022-09-27T09:50:57.478Z,21.95
2022-09-27T09:53:42.760Z,17.75
2022-09-27T09:56:18.478Z,18.67
2022-09-27T09:58:58.082Z,17.98
2022-09-27T10:01:38.324Z,19.95
2022-09-27T10:04:05.994Z,17.85
2022-09-27T10:06:33.407Z,21.35
2022-09-27T10:09:01.345Z,19.60
2022-09-27T10:11:37.027Z,21.60
2022-09-27T10:14:21.715Z,20.42
2022-09-27T10:17:02.890Z,24.87
2022-09-27T10:19:41.089Z,25.55
2022-09-27T10:22:45.427Z,23.12
2022-09-27T10:25:14.311Z,20.52
2022-09-27T10:27:47.412Z,19.62
2022-09-27T10:30:34.787Z,21.60
2022-09-27T10:33:14.111Z,21.58
2022-09-27T10:35:43.532Z,18.35
2022-09-27T10:38:25.145Z,21.45
2022-09-27T10:40:55.283Z,21.77
2022-09-27T10:43:36.694Z,18.60
2022-09-27T10:46:16.840Z,17.10
2022-09-27T10:48:45.469Z,23.10
2022-09-27T10:51:31.038Z,20.48
2022-09-27T10:54:00.399Z,18.83
2022-09-27T10:56:33.192Z,18.62
2022-09-27T10:59:01.122Z,16.65
2022-09-27T11:01:39.891Z,19.58
2022-09-27T11:04:41.795Z,15.88
2022-09-27T11:07:20.098Z,14.57
2022-09-27T11:09:56.519Z,14.93
2022-09-27T11:12:25.307Z,14.10
2022-09-27T11:15:07.558Z,13.98
2022-09-27T11:17:50.745Z,16.45
2022-09-27T11:20:33.746Z,14.43
2022-09-27T11:23:09.637Z,14.68
2022-09-27T11:25:53.216Z,13.52
2022-09-27T11:28:34.076Z,11.80
2022-09-27T11:31:17.639Z,13.95
2022-09-27T11:34:07.287Z,12.95
2022-09-27T11:36:50.343Z,15.45
2022-09-27T11:39:41.254Z,19.15
2022-09-27T11:42:23.753Z,12.98
2022-09-27T11:45:27.846Z,12.45
2022-09-27T11:48:05.110Z,11.75
2022-09-27T11:50:57.893Z,13.60
2022-09-27T11:53:28.430Z,13.35
2022-09-27T11:56:08.140Z,13.75
2022-09-27T11:59:11.883Z,12.43
2022-09-27T12:01:47.755Z,11.23
2022-09-27T12:04:47.816Z,11.80
2022-09-27T12:07:37.742Z,12.48
2022-09-27T12:10:09.816Z,11.75
2022-09-27T12:12:38.128Z,11.85
2022-09-27T12:15:12.907Z,11.70
2022-09-27T12:17:42.774Z,10.27
2022-09-27T12:20:20.578Z,12.63
2022-09-27T12:22:59.272Z,12.73
2022-09-27T12:25:30.490Z,11.15
2022-09-27T12:28:05.493Z,11.00
2022-09-27T12:30:33.109Z,11.65
2022-09-27T12:33:27.378Z,11.43
2022-09-27T12:35:55.526Z,10.50
2022-09-27T12:38:44.162Z,10.82
2022-09-27T12:41:14.035Z,12.32
2022-09-27T12:43:48.744Z,11.85
2022-09-27T12:46:31.964Z,14.18
2022-09-27T12:49:22.629Z,10.80
2022-09-27T12:52:02.127Z,12.52
2022-09-27T12:54:52.441Z,11.77
2022-09-27T12:57:34.348Z,9.77
2022-09-27T13:00:25.120Z,12.50
2022-09-27T13:03:25.040Z,10.88
2022-09-27T13:06:07.611Z,12.80
2022-09-27T13:09:03.931Z,9.48
2022-09-27T13:11:43.605Z,11.15
2022-09-27T13:14:23.141Z,10.63
2022-09-27T13:16:51.462Z,11.25
2022-09-27T13:19:42.975Z,17.23
2022-09-27T13:22:28.820Z,12.25
2022-09-27T13:24:57.480Z,13.13
2022-09-27T13:27:28.240Z,14.00
2022-09-27T13:30:07.876Z,11.75
2022-09-27T13:32:37.088Z,10.00
2022-09-27T13:35:26.631Z,11.63
2022-09-27T13:38:01.697Z,12.15
2022-09-27T13:40:33.441Z,11.63
2022-09-27T13:43:10.853Z,13.70
2022-09-27T13:45:58.020Z,9.90
2022-09-27T13:48:48.006Z,13.65
2022-09-27T13:51:24.589Z,11.07
2022-09-27T13:54:06.672Z,13.20
2022-09-27T13:56:38.005Z,13.43
2022-09-27T13:59:30.499Z,4.22
2022-09-27T14:02:13.572Z,8.02
2022-09-27T14:04:43.885Z,4.07
2022-09-27T14:07:13.846Z,6.82
2022-09-27T14:09:43.437Z,6.57
2022-09-27T14:12:16.473Z,10.40
2022-09-27T14:14:44.441Z,13.07
2022-09-27T14:17:12.785Z,5.87
2022-09-27T14:19:42.096Z,5.78
2022-09-27T14:22:13.877Z,7.78
2022-09-27T14:24:41.596Z,6.45
2022-09-27T14:27:17.843Z,4.47
2022-09-27T14:30:22.216Z,3.17
2022-09-27T14:32:52.057Z,6.37
2022-09-27T14:35:45.832Z,6.62
2022-09-27T14:38:36.710Z,5.82
2022-09-27T14:41:07.557Z,3.90
2022-09-27T14:43:35.859Z,6.55
2022-09-27T14:46:08.127Z,4.28
2022-09-27T14:48:37.297Z,6.55
2022-09-27T14:51:14.109Z,4.45
2022-09-27T14:53:44.777Z,4.55
2022-09-27T14:56:18.219Z,2.45
2022-09-27T14:58:47.989Z,4.70
2022-09-27T15:01:16.536Z,4.47
2022-09-27T15:03:44.832Z,3.55
2022-09-27T15:06:12.505Z,2.85
2022-09-27T15:08:39.800Z,2.58
2022-09-27T15:11:08.107Z,2.80
2022-09-27T15:13:37.401Z,3.15
2022-09-27T15:16:17.310Z,3.70
2022-09-27T15:18:49.230Z,6.37
2022-09-27T15:21:28.782Z,3.85
2022-09-27T15:23:56.732Z,5.12
2022-09-27T15:26:37.856Z,5.55
2022-09-27T15:29:05.564Z,3.53
2022-09-27T15:31:36.118Z,2.85
2022-09-27T15:34:06.674Z,2.25
2022-09-27T15:36:46.522Z,3.95
2022-09-27T15:39:32.349Z,3.35
2022-09-27T15:42:09.855Z,3.80
2022-09-27T15:44:45.319Z,5.18
2022-09-27T15:47:31.977Z,6.03
2022-09-27T15:49:59.776Z,4.20
2022-09-27T15:52:52.780Z,5.25
2022-09-27T15:55:24.845Z,4.97
2022-09-27T15:57:59.793Z,3.65
2022-09-27T16:00:27.242Z,2.50
2022-09-27T16:02:54.890Z,4.93
2022-09-27T16:05:26.899Z,3.83
2022-09-27T16:07:54.328Z,4.75
2022-09-27T16:10:24.287Z,8.20
2022-09-27T16:12:52.167Z,14.65
2022-09-27T16:15:19.614Z,9.00
2022-09-27T16:17:47.209Z,9.10
2022-09-27T16:20:27.310Z,6.43
2022-09-27T16:22:55.818Z,5.03
2022-09-27T16:25:23.527Z,7.97
2022-09-27T16:27:52.347Z,7.65
2022-09-27T16:30:20.684Z,9.18
2022-09-27T16:32:48.441Z,7.32
2022-09-27T16:35:16.675Z,5.78
2022-09-27T16:37:44.298Z,6.70
2022-09-27T16:40:12.072Z,4.82
2022-09-27T16:42:39.506Z,3.75
2022-09-27T16:45:10.506Z,5.70
2022-09-27T16:47:40.145Z,5.22
2022-09-27T16:50:27.076Z,3.95
2022-09-27T16:52:55.332Z,5.20
2022-09-27T16:55:22.971Z,4.72
2022-09-27T16:57:50.704Z,6.62
2022-09-27T17:00:18.236Z,5.30
2022-09-27T17:02:49.373Z,5.30
2022-09-27T17:05:16.902Z,8.68
2022-09-27T17:07:44.234Z,7.62
2022-09-27T17:10:12.836Z,8.18
2022-09-27T17:12:40.146Z,8.48
2022-09-27T17:15:07.834Z,6.32
2022-09-27T17:17:35.409Z,8.30
2022-09-27T17:20:02.728Z,8.07
2022-09-27T17:22:30.873Z,5.97
2022-09-27T17:24:58.436Z,7.95
2022-09-27T17:27:27.942Z,6.78
2022-09-27T17:29:55.653Z,7.45
2022-09-27T17:32:24.747Z,6.90
2022-09-27T17:34:52.126Z,8.98
2022-09-27T17:37:19.576Z,5.60
2022-09-27T17:39:47.178Z,6.18
2022-09-27T17:42:14.583Z,4.97
2022-09-27T17:44:42.912Z,8.13
2022-09-27T17:47:29.322Z,6.82
2022-09-27T17:55:09.910Z,9.50
2022-09-27T17:57:37.217Z,6.85
2022-09-27T18:00:05.762Z,7.12
2022-09-27T18:02:39.941Z,6.75
2022-09-27T18:05:07.827Z,6.55
2022-09-27T18:07:35.196Z,6.18
2022-09-27T18:10:02.504Z,6.70
2022-09-27T18:12:32.177Z,6.85
2022-09-27T18:14:59.547Z,5.82
2022-09-27T18:17:27.845Z,4.62
2022-09-27T18:19:57.044Z,6.32
2022-09-27T18:22:29.326Z,6.68
2022-09-27T18:24:56.939Z,6.43
2022-09-27T18:27:24.517Z,4.25
2022-09-27T18:29:52.571Z,7.10
2022-09-27T18:32:20.143Z,5.50
2022-09-27T18:34:47.403Z,15.43
2022-09-27T18:37:15.939Z,9.65
2022-09-27T18:39:43.499Z,11.15
2022-09-27T18:42:11.873Z,8.20
2022-09-27T18:44:39.305Z,7.03
2022-09-27T18:47:06.961Z,5.50
2022-09-27T18:49:34.480Z,5.05
2022-09-27T18:52:02.709Z,5.97
2022-09-27T18:54:30.374Z,4.85
2022-09-27T18:56:58.040Z,5.78
2022-09-27T18:59:25.393Z,4.47
2022-09-27T19:01:53.063Z,5.87
2022-09-27T19:04:26.904Z,6.60
2022-09-27T19:06:56.127Z,6.10
2022-09-27T19:09:24.485Z,6.32
2022-09-27T19:11:51.931Z,6.37
2022-09-27T19:14:20.297Z,6.75
2022-09-27T19:16:48.125Z,6.10
2022-09-27T19:19:19.509Z,7.75
2022-09-27T19:21:47.151Z,7.00
2022-09-27T19:24:15.154Z,5.50
2022-09-27T19:26:42.580Z,7.18
2022-09-27T19:29:10.448Z,6.57
2022-09-27T19:31:37.981Z,7.03
2022-09-27T19:34:05.351Z,6.72
2022-09-27T19:36:32.954Z,5.35
2022-09-27T19:39:01.261Z,7.45
2022-09-27T19:41:28.657Z,10.07
2022-09-27T19:43:56.718Z,5.20
2022-09-27T19:46:24.362Z,11.70
2022-09-27T19:48:51.856Z,7.72
2022-09-27T19:51:20.876Z,7.40
2022-09-27T19:53:48.475Z,9.15
2022-09-27T19:56:17.466Z,8.35
2022-09-27T19:58:45.228Z,8.65
2022-09-27T20:01:19.132Z,6.60
2022-09-27T20:03:47.118Z,7.22
2022-09-27T20:06:15.931Z,9.52
2022-09-27T20:08:43.390Z,9.95
2022-09-27T20:11:12.907Z,9.10
2022-09-27T20:13:40.484Z,7.18
2022-09-27T20:16:13.125Z,8.52
2022-09-27T20:18:56.012Z,9.13
2022-09-27T20:21:24.909Z,7.47
2022-09-27T20:23:56.142Z,9.27
2022-09-27T20:26:24.386Z,7.47
2022-09-27T20:28:53.201Z,9.57
2022-09-27T20:31:24.806Z,8.90
2022-09-27T20:33:52.543Z,6.70
2022-09-27T20:36:33.266Z,8.35
2022-09-27T20:39:03.259Z,6.45
2022-09-27T20:41:31.856Z,5.90
2022-09-27T20:44:00.533Z,6.03
2022-09-27T20:46:28.204Z,8.25
2022-09-27T20:49:15.982Z,3.95
2022-09-27T20:51:44.808Z,4.25
2022-09-27T20:54:12.493Z,8.25
2022-09-27T20:56:41.737Z,4.32
2022-09-27T20:59:20.105Z,4.30
2022-09-27T21:01:48.647Z,5.05
2022-09-27T21:04:17.190Z,2.37
2022-09-27T21:06:44.832Z,2.05
2022-09-27T21:09:18.207Z,2.60
2022-09-27T21:11:47.127Z,3.35
2022-09-27T21:14:14.547Z,3.05
2022-09-27T21:16:42.201Z,3.53
2022-09-27T21:19:09.988Z,3.67
2022-09-27T21:21:37.376Z,3.17
2022-09-27T21:24:04.816Z,2.83
2022-09-27T21:26:32.750Z,2.97
2022-09-27T21:29:01.171Z,4.30
2022-09-27T21:31:32.056Z,2.03
2022-09-27T21:34:01.277Z,2.65
2022-09-27T21:36:38.244Z,3.75
2022-09-27T21:39:06.678Z,3.53
2022-09-27T21:41:34.135Z,3.47
2022-09-27T21:44:04.980Z,3.80
2022-09-27T21:46:32.705Z,2.30
2022-09-27T21:49:01.825Z,2.67
2022-09-27T21:51:32.937Z,3.47
2022-09-27T21:54:01.508Z,3.30
2022-09-27T21:56:30.845Z,3.20
2022-09-27T21:58:58.136Z,3.75
2022-09-27T22:01:29.523Z,2.85
2022-09-27T22:03:57.768Z,1.60
2022-09-27T22:06:29.066Z,3.58
2022-09-27T22:08:57.148Z,7.72
2022-09-27T22:11:26.008Z,5.85
2022-09-27T22:13:53.327Z,1.20
2022-09-27T22:16:21.488Z,3.40
2022-09-27T22:18:50.341Z,2.10
2022-09-27T22:21:19.465Z,4.57
2022-09-27T22:23:47.096Z,1.25
2022-09-27T22:26:16.045Z,1.87
2022-09-27T22:28:43.789Z,2.12
2022-09-27T22:31:12.013Z,1.92
2022-09-27T22:33:39.367Z,3.37
2022-09-27T22:36:06.902Z,0.85
2022-09-27T22:38:34.485Z,1.83
2022-09-27T22:41:02.200Z,1.25
2022-09-27T22:43:29.569Z,1.75
2022-09-27T22:45:57.494Z,2.30
2022-09-27T22:48:24.808Z,1.02
2022-09-27T22:50:52.135Z,2.20
2022-09-27T22:53:19.766Z,2.62
2022-09-27T22:56:03.719Z,2.22
2022-09-27T22:58:32.367Z,1.33
2022-09-27T23:01:00.319Z,3.42
2022-09-27T23:03:27.768Z,1.87
2022-09-27T23:06:01.555Z,1.70
2022-09-27T23:08:28.869Z,2.08
2022-09-27T23:11:07.636Z,1.77
2022-09-27T23:13:37.504Z,1.40
2022-09-27T23:16:07.097Z,1.33
2022-09-27T23:18:34.805Z,2.72
2022-09-27T23:21:03.495Z,1.77
2022-09-27T23:23:31.529Z,0.90
2022-09-27T23:26:02.777Z,2.33
2022-09-27T23:28:30.702Z,1.05
2022-09-27T23:31:04.691Z,2.65
2022-09-27T23:33:32.066Z,1.98
2022-09-27T23:36:02.037Z,1.70
2022-09-27T23:38:31.313Z,0.70
2022-09-27T23:40:59.154Z,5.05
2022-09-27T23:43:26.769Z,1.45
2022-09-27T23:45:57.221Z,1.52
2022-09-27T23:48:25.451Z,1.55
2022-09-27T23:50:53.161Z,1.25
2022-09-27T23:53:20.813Z,1.25
2022-09-27T23:55:48.606Z,2.78
2022-09-27T23:58:17.402Z,2.15
